Fruitvale, Colorado
Current Conditions -  °F | °C
As of 9:53 PM on Friday 19 Dec 2014 (Local Time) from KGJT Reporting Station
Clear Clear  
Wind Chill: 23°   Ceiling: Unl
Heat Index: 29°   Visibility: 10mi
Dew Point: 27°   Wind: 6mph
Humidity: 92%   Direction: 70°ENE
Pressure: 30.21"   Gusts: NA
Location:  39.0804°N, 108.488°W
Report Text: KGJT 200453Z 07005KT 10SM CLR M02/M03 A3021 RMK AO2 SLP248 T10171028 $
Loading
Personal Weather Stations






























Interactive Weather Map New forecast layout! Learn more

10-Day Weather Forecast

Advertisements
Track Severe Weather on mobile